Time;durP1;ratioP1;P1;durP2;ratioP2;P2;SDS_P1;SDS_P2;PMS_P1;PMS_P2;Temp;Humidity;BMP_temperature;BMP_pressure;BME280_temperature;BME280_humidity;BME280_pressure;Samples;Min_cycle;Max_cycle;Signal;HPM_P1;HPM_P2
2024/01/04 00:00:06;;;;;;;0.77;0.20;;;;;;;10.03;88.12;97858.38;335906;28;5706;-77
2024/01/04 00:00:18;;;;;;;0.30;0.20;;;;;;;9.93;88.36;97871.88;330967;28;17784;-78
2024/01/04 00:00:30;;;;;;;0.28;0.17;;;;;;;9.94;88.55;97841.56;335434;28;10501;-79
2024/01/04 00:00:42;;;;;;;1.50;0.40;;;;;;;9.91;88.24;97868.53;338259;28;4619;-77
2024/01/04 00:00:54;;;;;;;2.60;0.40;;;;;;;9.94;88.24;97904.69;337847;28;5238;-77
2024/01/04 00:01:09;;;;;;;2.35;0.28;;;;;;;9.94;87.44;97857.97;336162;28;18387;-77
2024/01/04 00:01:21;;;;;;;0.50;0.10;;;;;;;9.97;87.34;97894.13;335083;28;11404;-77
2024/01/04 00:01:34;;;;;;;0.63;0.22;;;;;;;9.99;87.08;97840.34;337673;28;4848;-77
2024/01/04 00:01:46;;;;;;;0.90;0.20;;;;;;;9.97;87.50;97857.78;335622;28;19167;-77
2024/01/04 00:01:58;;;;;;;0.85;0.28;;;;;;;9.99;87.20;97860.31;339822;28;5020;-77
2024/01/04 00:02:10;;;;;;;1.70;0.20;;;;;;;9.98;87.46;97856.88;335931;28;12413;-78
2024/01/04 00:02:22;;;;;;;1.58;0.20;;;;;;;10.00;87.46;97823.88;337853;28;4525;-78
2024/01/04 00:02:34;;;;;;;0.85;0.15;;;;;;;9.97;87.11;97852.59;338041;28;4704;-78
2024/01/04 00:02:46;;;;;;;0.50;0.20;;;;;;;10.03;87.03;97819.44;335758;28;16949;-79
2024/01/04 00:02:58;;;;;;;1.13;0.38;;;;;;;10.09;86.68;97855.41;337406;28;4540;-78
2024/01/04 00:03:10;;;;;;;1.10;0.30;;;;;;;10.09;86.86;97845.03;332779;28;5380;-77
2024/01/04 00:03:24;;;;;;;1.08;0.30;;;;;;;10.06;86.87;97840.84;333968;28;18374;-78
2024/01/04 00:03:37;;;;;;;0.13;0.10;;;;;;;10.04;87.37;97841.84;334475;28;4606;-77
2024/01/04 00:03:49;;;;;;;0.30;0.10;;;;;;;10.00;87.24;97862.81;338631;28;5039;-77
2024/01/04 00:04:01;;;;;;;0.30;0.20;;;;;;;9.95;87.52;97854.44;335856;28;16409;-77
2024/01/04 00:04:13;;;;;;;0.57;0.13;;;;;;;9.97;87.67;97868.16;339415;28;5482;-76
2024/01/04 00:04:25;;;;;;;0.70;0.20;;;;;;;9.98;87.71;97853.44;338752;28;5443;-77
2024/01/04 00:04:39;;;;;;;0.90;0.30;;;;;;;10.00;87.74;97851.59;335295;28;18157;-77
2024/01/04 00:04:51;;;;;;;0.80;0.35;;;;;;;9.98;88.16;97862.06;334792;28;13260;-77
2024/01/04 00:05:03;;;;;;;0.55;0.20;;;;;;;9.96;88.01;97835.38;337932;28;4620;-77
2024/01/04 00:05:16;;;;;;;0.93;0.32;;;;;;;9.96;87.75;97844.88;337759;28;5622;-77
2024/01/04 00:05:28;;;;;;;1.02;0.38;;;;;;;9.97;87.73;97852.59;336657;28;17946;-78
2024/01/04 00:05:40;;;;;;;1.45;0.45;;;;;;;10.02;88.36;97859.28;338542;28;4733;-78
2024/01/04 00:05:52;;;;;;;1.10;0.30;;;;;;;10.04;88.12;97821.06;336129;28;17842;-77
2024/01/04 00:06:05;;;;;;;0.63;0.20;;;;;;;10.10;87.75;97852.72;334378;28;5487;-78
2024/01/04 00:06:20;;;;;;;0.52;0.20;;;;;;;10.03;87.94;97858.38;335348;28;5524;-77
2024/01/04 00:06:32;;;;;;;1.10;0.30;;;;;;;10.12;87.84;97840.47;334811;28;17827;-79
2024/01/04 00:06:44;;;;;;;1.17;0.28;;;;;;;10.13;87.55;97846.50;339472;28;4583;-78
2024/01/04 00:06:56;;;;;;;1.15;0.20;;;;;;;10.11;87.63;97837.97;340043;28;5292;-78
2024/01/04 00:07:08;;;;;;;1.40;0.20;;;;;;;10.08;87.57;97832.94;337929;28;17905;-79
2024/01/04 00:07:20;;;;;;;0.75;0.10;;;;;;;10.11;87.29;97843.16;339034;28;4826;-78
2024/01/04 00:07:32;;;;;;;0.10;0.10;;;;;;;10.06;87.59;97827.00;335541;28;16421;-78
2024/01/04 00:07:45;;;;;;;0.20;0.20;;;;;;;10.08;87.04;97870.16;339480;28;5615;-78
2024/01/04 00:07:57;;;;;;;0.20;0.15;;;;;;;10.07;87.48;97867.63;336907;28;8909;-77
2024/01/04 00:08:09;;;;;;;0.30;0.13;;;;;;;10.06;87.37;97840.00;339263;28;5308;-78
2024/01/04 00:08:21;;;;;;;2.70;0.20;;;;;;;10.05;87.37;97857.34;338769;28;4632;-77
2024/01/04 00:08:33;;;;;;;2.65;0.20;;;;;;;10.10;87.52;97847.53;335362;28;18769;-77
2024/01/04 00:08:46;;;;;;;1.50;0.22;;;;;;;10.09;87.38;97845.03;336656;28;5620;-77
2024/01/04 00:08:58;;;;;;;1.90;0.35;;;;;;;10.14;87.18;97842.97;335446;28;16485;-77
2024/01/04 00:09:11;;;;;;;1.13;0.30;;;;;;;10.10;87.37;97864.84;335565;28;17266;-78
2024/01/04 00:09:23;;;;;;;0.98;0.20;;;;;;;10.04;87.37;97858.28;334915;28;16274;-77
2024/01/04 00:09:35;;;;;;;0.80;0.22;;;;;;;10.02;87.58;97861.88;338037;28;5585;-77
2024/01/04 00:09:48;;;;;;;0.93;0.25;;;;;;;10.07;87.55;97852.88;339955;28;4572;-77
2024/01/04 00:10:00;;;;;;;0.40;0.10;;;;;;;10.09;87.77;97855.41;334277;28;17909;-77
2024/01/04 00:10:14;;;;;;;1.40;0.30;;;;;;;10.07;87.60;97852.88;336625;28;4527;-77
2024/01/04 00:10:26;;;;;;;1.10;0.30;;;;;;;10.05;87.32;97865.13;330931;28;17967;-77
2024/01/04 00:10:38;;;;;;;0.40;0.20;;;;;;;10.03;87.64;97851.41;335470;28;17953;-77
2024/01/04 00:10:50;;;;;;;1.05;0.20;;;;;;;10.16;87.31;97861.88;338533;28;5409;-78
2024/01/04 00:11:04;;;;;;;1.42;0.22;;;;;;;10.13;87.67;97836.13;337796;28;5241;-78
2024/01/04 00:11:16;;;;;;;1.10;0.30;;;;;;;10.05;87.46;97864.28;331563;28;17905;-77
2024/01/04 00:11:28;;;;;;;0.90;0.30;;;;;;;10.03;87.81;97879.13;332132;28;17515;-77
2024/01/04 00:11:40;;;;;;;1.55;0.30;;;;;;;10.02;87.89;97864.47;336431;28;4590;-77
2024/01/04 00:11:52;;;;;;;1.10;0.30;;;;;;;10.00;87.98;97805.72;337376;28;4681;-78
2024/01/04 00:12:04;;;;;;;2.20;0.50;;;;;;;10.04;87.75;97862.63;333497;28;5045;-78
2024/01/04 00:12:17;;;;;;;2.10;0.80;;;;;;;10.03;87.69;97861.78;336750;28;4664;-77
2024/01/04 00:12:29;;;;;;;4.72;1.00;;;;;;;10.08;88.07;97848.53;335068;28;19217;-77
2024/01/04 00:12:42;;;;;;;3.70;0.70;;;;;;;10.05;88.21;97848.72;337028;28;4542;-78
2024/01/04 00:12:53;;;;;;;0.30;0.10;;;;;;;10.11;87.89;97856.16;336457;28;5125;-77
2024/01/04 00:13:06;;;;;;;1.10;0.10;;;;;;;10.05;87.88;97875.50;338666;28;5541;-77
2024/01/04 00:13:18;;;;;;;1.88;0.20;;;;;;;10.05;87.46;97864.28;332821;28;4692;-77
2024/01/04 00:13:30;;;;;;;1.90;0.30;;;;;;;10.11;87.49;97840.56;336631;28;5045;-78
2024/01/04 00:13:42;;;;;;;1.52;0.40;;;;;;;10.18;87.64;97870.41;338574;28;5444;-78
2024/01/04 00:13:54;;;;;;;2.70;0.40;;;;;;;10.17;87.52;97858.38;334991;28;11287;-78
2024/01/04 00:14:08;;;;;;;2.70;0.30;;;;;;;10.14;87.36;97854.22;338300;28;4663;-78
2024/01/04 00:14:20;;;;;;;0.32;0.00;;;;;;;10.05;87.51;97859.94;335793;28;17974;-77
2024/01/04 00:14:32;;;;;;;0.28;0.10;;;;;;;10.13;87.54;97846.50;338746;28;4592;-78
2024/01/04 00:14:44;;;;;;;0.85;0.30;;;;;;;10.05;87.32;97843.53;338382;28;10127;-77
2024/01/04 00:14:59;;;;;;;1.02;0.30;;;;;;;10.11;87.53;97838.78;331873;28;16889;-77
2024/01/04 00:15:11;;;;;;;1.27;0.35;;;;;;;10.04;87.44;97868.66;334647;28;18068;-77
2024/01/04 00:15:23;;;;;;;1.70;0.40;;;;;;;10.07;87.71;97884.03;337492;28;5434;-78
2024/01/04 00:15:35;;;;;;;1.40;0.35;;;;;;;10.02;87.55;97844.56;335257;28;18098;-77
2024/01/04 00:15:47;;;;;;;0.32;0.20;;;;;;;10.08;87.55;97851.97;335142;28;5347;-77
2024/01/04 00:16:00;;;;;;;0.20;0.10;;;;;;;10.02;87.61;97835.91;336161;28;5764;-77
2024/01/04 00:16:12;;;;;;;0.20;0.10;;;;;;;10.07;87.87;97850.28;329298;28;18227;-77
2024/01/04 00:16:24;;;;;;;0.85;0.17;;;;;;;10.03;87.83;97860.97;338850;28;5338;-77
2024/01/04 00:16:36;;;;;;;1.10;0.20;;;;;;;9.96;88.03;97850.94;332970;28;18167;-78
2024/01/04 00:16:48;;;;;;;1.10;0.22;;;;;;;10.00;87.85;97857.63;337177;28;5633;-77
2024/01/04 00:17:00;;;;;;;0.50;0.20;;;;;;;9.96;87.97;97861.31;334473;28;18065;-77
2024/01/04 00:17:12;;;;;;;0.50;0.20;;;;;;;10.03;88.35;97850.56;337284;28;5354;-77
2024/01/04 00:17:25;;;;;;;0.73;0.20;;;;;;;10.11;87.95;97845.75;337217;28;5394;-78
2024/01/04 00:17:37;;;;;;;0.50;0.20;;;;;;;10.04;88.16;97847.03;335876;28;19520;-77
2024/01/04 00:17:49;;;;;;;0.20;0.20;;;;;;;10.04;88.18;97862.63;333479;28;4773;-76
2024/01/04 00:18:03;;;;;;;0.22;0.17;;;;;;;10.00;88.14;97842.03;335107;28;18781;-79
2024/01/04 00:18:15;;;;;;;2.35;0.10;;;;;;;9.98;88.73;97859.47;336608;28;10535;-76
2024/01/04 00:18:28;;;;;;;2.53;0.10;;;;;;;9.95;88.69;97858.81;330936;28;17295;-78
2024/01/04 00:18:40;;;;;;;1.38;0.10;;;;;;;10.05;88.13;97830.56;336457;28;4713;-77
2024/01/04 00:18:52;;;;;;;0.93;0.20;;;;;;;10.08;88.05;97861.50;333430;28;19180;-78
2024/01/04 00:19:05;;;;;;;1.10;0.20;;;;;;;9.99;88.24;97855.09;337386;28;5323;-77
2024/01/04 00:19:17;;;;;;;1.20;0.20;;;;;;;10.02;88.40;97854.94;334325;28;18259;-77
2024/01/04 00:19:29;;;;;;;1.25;0.20;;;;;;;10.02;88.13;97854.09;336147;28;4555;-77
2024/01/04 00:19:41;;;;;;;1.20;0.30;;;;;;;9.97;88.46;97831.81;334051;28;18124;-77
2024/01/04 00:19:53;;;;;;;0.10;0.10;;;;;;;10.02;88.71;97843.69;336559;28;4685;-77
2024/01/04 00:20:06;;;;;;;0.25;0.13;;;;;;;10.09;87.99;97851.03;336861;28;4576;-77
2024/01/04 00:20:18;;;;;;;0.28;0.10;;;;;;;10.13;88.29;97841.31;334989;28;18539;-78
2024/01/04 00:20:30;;;;;;;0.32;0.20;;;;;;;10.10;88.37;97825.91;337906;28;11652;-77
2024/01/04 00:20:43;;;;;;;0.10;0.10;;;;;;;10.11;88.55;97866.53;330837;28;17965;-78
2024/01/04 00:20:55;;;;;;;0.10;0.10;;;;;;;10.10;88.15;97841.47;337551;28;5807;-77
2024/01/04 00:21:11;;;;;;;0.10;0.10;;;;;;;10.10;88.16;97846.66;333758;28;13580;-77
2024/01/04 00:21:23;;;;;;;0.10;0.10;;;;;;;10.06;87.80;97852.97;333356;28;17844;-76
2024/01/04 00:21:35;;;;;;;0.52;0.22;;;;;;;10.11;87.86;97850.94;336083;28;5719;-77
2024/01/04 00:21:47;;;;;;;0.80;0.35;;;;;;;10.13;88.22;97846.50;332166;28;17976;-77
2024/01/04 00:21:59;;;;;;;0.68;0.30;;;;;;;10.11;88.15;97850.94;334596;28;4592;-77
2024/01/04 00:22:11;;;;;;;0.40;0.15;;;;;;;10.06;87.78;97845.19;336104;28;4729;-77
2024/01/04 00:22:24;;;;;;;0.50;0.20;;;;;;;10.07;87.67;97857.25;333216;28;18347;-77
2024/01/04 00:22:36;;;;;;;0.20;0.10;;;;;;;10.06;87.89;97845.19;336221;28;4561;-78
2024/01/04 00:22:48;;;;;;;0.13;0.00;;;;;;;10.04;88.04;97867.81;337402;28;16611;-78
2024/01/04 00:23:00;;;;;;;0.32;0.10;;;;;;;10.10;87.81;97851.88;338594;28;4748;-76
2024/01/04 00:23:12;;;;;;;0.30;0.10;;;;;;;10.10;87.74;97842.34;335177;28;18245;-78
2024/01/04 00:23:24;;;;;;;0.75;0.15;;;;;;;10.08;87.64;97819.97;338585;28;4566;-77
2024/01/04 00:23:36;;;;;;;1.90;0.10;;;;;;;10.11;87.55;97843.16;338331;28;5106;-77
2024/01/04 00:23:48;;;;;;;1.48;0.03;;;;;;;10.11;87.46;97827.59;335662;28;17665;-76
2024/01/04 00:24:01;;;;;;;0.68;0.10;;;;;;;10.09;88.16;97855.41;338352;28;5094;-78
2024/01/04 00:24:13;;;;;;;1.88;0.20;;;;;;;10.08;88.09;97858.91;335725;28;16470;-78
2024/01/04 00:24:25;;;;;;;1.77;0.20;;;;;;;10.07;88.02;97873.66;337276;28;5193;-76
2024/01/04 00:24:37;;;;;;;1.80;0.20;;;;;;;10.01;88.35;97850.66;337186;28;5400;-77
2024/01/04 00:24:49;;;;;;;0.80;0.20;;;;;;;9.99;88.57;97858.53;335944;28;17783;-77
2024/01/04 00:25:02;;;;;;;0.57;0.20;;;;;;;9.97;88.51;97882.91;334149;28;4776;-77
2024/01/04 00:25:14;;;;;;;0.10;0.10;;;;;;;10.02;88.88;97864.47;335987;28;18139;-77
2024/01/04 00:25:26;;;;;;;0.90;0.30;;;;;;;10.03;88.48;97845.38;339439;28;5443;-77
2024/01/04 00:25:38;;;;;;;1.00;0.25;;;;;;;10.03;88.45;97858.38;336593;28;14250;-76
2024/01/04 00:25:50;;;;;;;0.52;0.20;;;;;;;10.00;88.25;97868.00;339586;28;5019;-79
2024/01/04 00:26:02;;;;;;;0.98;0.30;;;;;;;10.04;88.43;97847.03;338786;28;4631;-77
2024/01/04 00:26:14;;;;;;;1.33;0.20;;;;;;;10.10;88.27;97862.25;336180;28;18113;-77
2024/01/04 00:26:26;;;;;;;1.02;0.13;;;;;;;10.09;88.50;97834.63;339271;28;5916;-77
2024/01/04 00:26:38;;;;;;;0.15;0.10;;;;;;;10.06;88.00;97856.44;335113;28;4545;-77
2024/01/04 00:26:50;;;;;;;0.20;0.10;;;;;;;9.98;88.38;97869.84;337268;28;18814;-77
2024/01/04 00:27:02;;;;;;;0.30;0.20;;;;;;;9.94;88.96;97851.94;338587;28;4934;-77
2024/01/04 00:27:15;;;;;;;0.10;0.10;;;;;;;9.99;88.68;97837.75;335922;28;9650;-77
2024/01/04 00:27:27;;;;;;;0.00;0.00;;;;;;;10.06;88.66;97855.56;338607;28;5420;-77
2024/01/04 00:27:39;;;;;;;0.10;0.10;;;;;;;10.06;88.70;97855.56;337848;28;5416;-76
2024/01/04 00:27:51;;;;;;;0.20;0.20;;;;;;;10.06;88.25;97851.22;338164;28;4571;-77
2024/01/04 00:28:03;;;;;;;0.50;0.20;;;;;;;10.04;88.19;97866.06;339953;28;5482;-78
2024/01/04 00:28:15;;;;;;;1.90;0.20;;;;;;;10.04;88.46;97862.63;336619;28;18192;-77
2024/01/04 00:28:27;;;;;;;1.85;0.20;;;;;;;10.04;88.52;97871.25;339854;28;4887;-77
2024/01/04 00:28:39;;;;;;;1.80;0.20;;;;;;;10.05;88.25;97854.75;338038;28;18069;-77
2024/01/04 00:28:51;;;;;;;0.50;0.30;;;;;;;10.12;88.68;97881.16;338923;28;4543;-77
2024/01/04 00:29:03;;;;;;;0.22;0.22;;;;;;;10.11;88.19;97838.78;338448;28;5593;-77
2024/01/04 00:29:15;;;;;;;0.20;0.20;;;;;;;10.19;88.23;97848.72;336969;28;16617;-77
2024/01/04 00:29:27;;;;;;;0.60;0.10;;;;;;;10.15;88.55;97842.06;339974;28;5855;-77
2024/01/04 00:29:40;;;;;;;0.82;0.22;;;;;;;10.07;88.79;97841.69;337463;28;4683;-77
2024/01/04 00:29:52;;;;;;;1.10;0.50;;;;;;;10.07;88.55;97863.28;336575;28;17955;-77
2024/01/04 00:30:05;;;;;;;1.40;0.57;;;;;;;10.02;89.20;97849.75;336592;28;12413;-77
2024/01/04 00:30:17;;;;;;;1.00;0.30;;;;;;;9.99;88.69;97855.94;334459;28;18042;-77
2024/01/04 00:30:29;;;;;;;0.90;0.20;;;;;;;9.96;88.80;97874.31;335516;28;4939;-77
2024/01/04 00:30:42;;;;;;;2.00;0.28;;;;;;;9.96;88.81;97853.53;339542;28;4530;-77
2024/01/04 00:30:54;;;;;;;1.40;0.20;;;;;;;9.99;89.13;97835.16;338656;28;4709;-76
2024/01/04 00:31:06;;;;;;;0.90;0.20;;;;;;;9.96;89.36;97856.13;334338;28;18294;-77
2024/01/04 00:31:18;;;;;;;0.30;0.13;;;;;;;9.98;89.52;97856.88;336261;28;5465;-77
2024/01/04 00:31:30;;;;;;;0.10;0.10;;;;;;;10.00;89.25;97862.81;334382;28;16323;-77
2024/01/04 00:31:42;;;;;;;0.80;0.30;;;;;;;10.04;89.08;97862.63;337237;28;4589;-78
2024/01/04 00:31:55;;;;;;;0.80;0.30;;;;;;;10.02;89.25;97854.09;337277;28;5286;-77
2024/01/04 00:32:08;;;;;;;1.40;0.22;;;;;;;9.99;89.47;97863.72;335528;28;17566;-77
2024/01/04 00:32:20;;;;;;;1.30;0.20;;;;;;;10.04;89.53;97857.41;332516;28;5124;-77
2024/01/04 00:32:32;;;;;;;1.10;0.10;;;;;;;9.96;89.10;97852.69;332454;28;4658;-77
2024/01/04 00:32:45;;;;;;;0.68;0.10;;;;;;;9.98;89.21;97856.06;336389;28;4618;-78
2024/01/04 00:32:57;;;;;;;1.00;0.13;;;;;;;10.05;89.28;97866.91;333689;28;18080;-78
2024/01/04 00:33:09;;;;;;;0.40;0.17;;;;;;;10.03;89.19;97866.97;337281;28;4922;-77
2024/01/04 00:33:22;;;;;;;0.70;0.20;;;;;;;10.09;88.89;97834.63;335654;28;19337;-77
2024/01/04 00:33:34;;;;;;;1.45;0.20;;;;;;;10.05;88.72;97869.50;337595;28;5524;-78
2024/01/04 00:33:46;;;;;;;1.75;0.17;;;;;;;10.07;88.52;97857.25;334125;28;17983;-78
2024/01/04 00:33:58;;;;;;;1.30;0.10;;;;;;;10.08;88.96;97845.94;334929;28;16925;-77
2024/01/04 00:34:11;;;;;;;0.10;0.10;;;;;;;10.03;88.94;97860.97;330749;28;4650;-77
2024/01/04 00:34:23;;;;;;;0.20;0.20;;;;;;;9.99;88.33;97850.75;337216;28;4586;-78
2024/01/04 00:34:35;;;;;;;0.20;0.20;;;;;;;10.09;88.49;97860.59;338359;28;4733;-78
2024/01/04 00:34:47;;;;;;;0.73;0.22;;;;;;;10.10;88.48;97852.72;333797;28;16623;-77
2024/01/04 00:34:59;;;;;;;0.70;0.25;;;;;;;10.08;88.70;97848.53;336022;28;4583;-77
2024/01/04 00:35:11;;;;;;;0.52;0.20;;;;;;;10.04;88.57;97854.81;333605;28;17981;-77
2024/01/04 00:35:24;;;;;;;0.20;0.10;;;;;;;10.03;88.50;97860.97;331901;28;4524;-77
2024/01/04 00:35:35;;;;;;;0.35;0.10;;;;;;;10.04;88.56;97879.03;334483;28;4618;-77
2024/01/04 00:35:48;;;;;;;0.63;0.20;;;;;;;10.06;89.03;97860.75;332009;28;4683;-77
2024/01/04 00:36:00;;;;;;;1.10;0.30;;;;;;;10.07;89.00;97865.03;334681;28;4559;-78
2024/01/04 00:36:13;;;;;;;0.70;0.20;;;;;;;10.03;88.77;97866.16;331547;28;13807;-77
2024/01/04 00:36:25;;;;;;;1.60;0.28;;;;;;;10.00;88.86;97860.22;335809;28;4638;-78
2024/01/04 00:36:37;;;;;;;2.05;0.20;;;;;;;9.94;89.39;97857.97;334656;28;4764;-77
2024/01/04 00:36:49;;;;;;;1.50;0.20;;;;;;;9.92;89.14;97857.25;333401;28;4635;-77
2024/01/04 00:37:03;;;;;;;1.33;0.20;;;;;;;10.00;88.88;97847.25;338792;28;4560;-77
2024/01/04 00:37:15;;;;;;;0.68;0.20;;;;;;;10.05;88.80;97851.31;335436;28;17897;-78
2024/01/04 00:37:27;;;;;;;0.90;0.20;;;;;;;10.08;88.12;97854.56;334317;28;18047;-77
2024/01/04 00:37:39;;;;;;;1.20;0.20;;;;;;;10.09;88.50;97870.97;338105;28;5045;-78
2024/01/04 00:37:52;;;;;;;0.75;0.13;;;;;;;10.14;88.36;97880.16;338396;28;4537;-78
2024/01/04 00:38:04;;;;;;;0.50;0.10;;;;;;;10.09;87.75;97871.81;335038;28;18324;-77
2024/01/04 00:38:16;;;;;;;0.30;0.10;;;;;;;10.14;88.19;97858.53;337421;28;5357;-77
2024/01/04 00:38:28;;;;;;;0.40;0.20;;;;;;;10.14;87.90;97837.78;332018;28;18707;-78
2024/01/04 00:38:40;;;;;;;1.17;0.28;;;;;;;10.06;88.53;97864.22;336116;28;4748;-77
2024/01/04 00:38:52;;;;;;;1.40;0.32;;;;;;;10.09;88.31;97870.97;333288;28;16237;-78
2024/01/04 00:39:04;;;;;;;2.00;0.50;;;;;;;10.05;88.27;97848.72;336586;28;4590;-78
2024/01/04 00:39:17;;;;;;;1.10;0.30;;;;;;;10.08;87.96;97853.72;336528;28;4549;-77
2024/01/04 00:39:30;;;;;;;0.73;0.20;;;;;;;10.08;88.14;97874.50;335058;28;17763;-77
2024/01/04 00:39:42;;;;;;;0.63;0.20;;;;;;;10.10;87.72;97851.88;334923;28;5516;-77
2024/01/04 00:39:54;;;;;;;0.65;0.20;;;;;;;10.14;88.11;97858.53;336901;28;17089;-76
2024/01/04 00:40:08;;;;;;;0.45;0.30;;;;;;;10.19;87.95;97861.72;340297;28;4559;-77
2024/01/04 00:40:20;;;;;;;1.25;0.30;;;;;;;10.16;87.86;97864.47;334945;28;17655;-78
2024/01/04 00:40:33;;;;;;;1.33;0.20;;;;;;;10.23;88.04;97852.81;339767;28;4541;-78
2024/01/04 00:40:45;;;;;;;1.15;0.30;;;;;;;10.16;87.53;97857.56;335968;28;18262;-77
2024/01/04 00:40:57;;;;;;;0.77;0.40;;;;;;;10.21;87.82;97872.84;338187;28;6140;-77
2024/01/04 00:41:09;;;;;;;1.27;0.40;;;;;;;10.20;88.22;97869.41;334539;28;4709;-77
2024/01/04 00:41:21;;;;;;;1.20;0.30;;;;;;;10.21;87.59;97859.84;338941;28;4642;-77
2024/01/04 00:41:33;;;;;;;2.10;0.30;;;;;;;10.28;87.73;97845.59;335884;28;17734;-78
2024/01/04 00:41:46;;;;;;;1.67;0.38;;;;;;;10.28;87.49;97876.75;337932;28;5670;-78
2024/01/04 00:41:58;;;;;;;1.75;0.22;;;;;;;10.26;87.42;97855.25;336201;28;13255;-77
2024/01/04 00:42:10;;;;;;;1.08;0.10;;;;;;;10.22;87.93;97866.72;337111;28;4571;-79
2024/01/04 00:42:22;;;;;;;0.32;0.10;;;;;;;10.22;87.90;97860.69;337214;28;5360;-77
2024/01/04 00:42:35;;;;;;;1.10;0.20;;;;;;;10.25;88.14;97855.31;336598;28;17842;-78
2024/01/04 00:42:47;;;;;;;1.10;0.20;;;;;;;10.15;87.99;97881.00;335091;28;18467;-77
2024/01/04 00:42:59;;;;;;;0.43;0.20;;;;;;;10.13;87.53;97877.66;336971;28;4547;-78
2024/01/04 00:43:11;;;;;;;0.90;0.30;;;;;;;10.11;87.60;97871.72;333184;28;14953;-77
2024/01/04 00:43:23;;;;;;;1.02;0.30;;;;;;;10.11;88.35;97843.16;337086;28;5354;-77
2024/01/04 00:43:36;;;;;;;1.50;0.70;;;;;;;10.14;88.13;97858.53;334668;28;18183;-77
2024/01/04 00:43:49;;;;;;;1.50;0.70;;;;;;;10.12;87.78;97870.78;338317;28;4490;-77
2024/01/04 00:44:01;;;;;;;0.50;0.20;;;;;;;10.09;87.81;97902.97;332594;28;18085;-77
2024/01/04 00:44:13;;;;;;;0.82;0.20;;;;;;;10.18;87.64;97857.44;335873;28;4564;-78
2024/01/04 00:44:25;;;;;;;0.77;0.30;;;;;;;10.11;87.58;97859.56;337262;28;5230;-78
2024/01/04 00:44:37;;;;;;;1.40;0.38;;;;;;;10.11;87.96;97863.94;334612;28;18032;-78
2024/01/04 00:44:50;;;;;;;1.73;0.25;;;;;;;10.15;87.88;97862.81;338827;28;4775;-77
2024/01/04 00:45:04;;;;;;;2.20;0.25;;;;;;;10.06;87.97;97860.75;336345;28;18317;-77
2024/01/04 00:45:16;;;;;;;1.50;0.20;;;;;;;9.98;88.51;97882.84;335411;28;16918;-79
2024/01/04 00:45:28;;;;;;;0.60;0.20;;;;;;;10.00;88.57;97857.63;339008;28;5345;-77
2024/01/04 00:45:40;;;;;;;0.60;0.13;;;;;;;10.12;88.63;97865.59;334299;28;4525;-77
2024/01/04 00:45:52;;;;;;;1.80;0.30;;;;;;;10.13;88.53;97872.47;335513;28;17814;-77
2024/01/04 00:46:04;;;;;;;1.40;0.30;;;;;;;10.09;88.47;97870.97;338602;28;5610;-77
2024/01/04 00:46:16;;;;;;;1.40;0.30;;;;;;;10.05;88.74;97898.88;335271;28;16315;-77
2024/01/04 00:46:28;;;;;;;1.30;0.22;;;;;;;10.07;88.40;97857.25;338271;28;4606;-77
2024/01/04 00:46:41;;;;;;;0.95;0.22;;;;;;;10.02;88.80;97854.09;336723;28;4632;-77
2024/01/04 00:46:53;;;;;;;0.57;0.20;;;;;;;10.00;88.60;97878.38;334950;28;17835;-78
2024/01/04 00:47:05;;;;;;;1.23;0.40;;;;;;;9.98;88.46;97895.81;335715;28;12480;-77
2024/01/04 00:47:17;;;;;;;1.30;0.40;;;;;;;10.02;88.47;97891.28;335657;28;17139;-77
2024/01/04 00:47:29;;;;;;;1.17;0.47;;;;;;;10.06;88.56;97882.38;337618;28;4766;-77
2024/01/04 00:47:42;;;;;;;0.30;0.20;;;;;;;10.02;88.67;97926.75;335432;28;5313;-77
2024/01/04 00:47:54;;;;;;;0.30;0.20;;;;;;;10.09;88.69;97845.03;336472;28;4814;-77
2024/01/04 00:48:06;;;;;;;0.05;0.05;;;;;;;10.17;88.42;97881.75;334995;28;11390;-77
2024/01/04 00:48:18;;;;;;;0.15;0.15;;;;;;;10.18;88.12;97883.41;337048;28;4859;-78
2024/01/04 00:48:31;;;;;;;0.30;0.30;;;;;;;10.14;88.52;97863.72;337157;28;5478;-77
2024/01/04 00:48:43;;;;;;;3.05;0.38;;;;;;;10.18;88.80;97868.69;334898;28;13794;-77
2024/01/04 00:48:55;;;;;;;3.40;0.30;;;;;;;10.16;88.26;97872.28;336427;28;4553;-78
2024/01/04 00:49:07;;;;;;;3.83;0.40;;;;;;;10.08;88.55;97871.88;333470;28;15120;-77
2024/01/04 00:49:20;;;;;;;0.80;0.30;;;;;;;10.13;88.69;97865.50;335842;28;5599;-78
2024/01/04 00:49:32;;;;;;;0.70;0.30;;;;;;;10.14;89.27;97869.78;333772;28;12194;-77
2024/01/04 00:49:44;;;;;;;0.30;0.20;;;;;;;10.16;88.87;97869.66;338158;28;5224;-77
2024/01/04 00:49:56;;;;;;;0.60;0.40;;;;;;;10.15;88.67;97868.00;338474;28;4594;-77
2024/01/04 00:50:09;;;;;;;0.30;0.30;;;;;;;10.11;88.78;97863.94;332945;28;14854;-77
2024/01/04 00:50:21;;;;;;;1.25;0.38;;;;;;;10.11;88.80;97880.34;335109;28;4979;-77
2024/01/04 00:50:33;;;;;;;2.60;0.30;;;;;;;10.17;88.93;97873.94;331873;28;18150;-79
2024/01/04 00:50:45;;;;;;;2.13;0.25;;;;;;;10.20;88.50;97884.13;336791;28;4810;-77
2024/01/04 00:50:58;;;;;;;1.50;0.50;;;;;;;10.24;88.68;97859.69;334493;28;16426;-77
2024/01/04 00:51:10;;;;;;;1.40;0.50;;;;;;;10.29;88.53;97868.03;337731;28;4529;-77
2024/01/04 00:51:22;;;;;;;1.73;0.30;;;;;;;10.36;88.68;97863.31;336220;28;4593;-77
2024/01/04 00:51:34;;;;;;;1.80;0.30;;;;;;;10.28;87.97;97863.78;334759;28;17789;-78
2024/01/04 00:51:47;;;;;;;1.52;0.28;;;;;;;10.26;87.87;97868.22;337462;28;4598;-77
2024/01/04 00:51:59;;;;;;;0.55;0.20;;;;;;;10.14;88.30;97880.16;334927;28;19012;-77
2024/01/04 00:52:11;;;;;;;0.68;0.20;;;;;;;10.16;88.74;97917.25;338779;28;4720;-77
2024/01/04 00:52:24;;;;;;;0.70;0.10;;;;;;;10.16;88.42;97877.47;336003;28;13006;-76
2024/01/04 00:52:36;;;;;;;0.75;0.10;;;;;;;10.17;88.29;97868.75;339038;28;4510;-78
2024/01/04 00:52:48;;;;;;;0.50;0.10;;;;;;;10.11;88.67;97900.28;332711;28;5248;-77
2024/01/04 00:53:14;;;;;;;0.55;0.20;;;;;;;10.18;88.41;97875.59;336351;28;17576;-78
2024/01/04 00:53:26;;;;;;;0.68;0.15;;;;;;;10.19;88.57;97872.09;338847;28;4567;-77
2024/01/04 00:53:38;;;;;;;1.90;0.20;;;;;;;10.17;88.74;97873.94;335115;28;10984;-77
2024/01/04 00:53:50;;;;;;;2.40;0.30;;;;;;;10.13;88.88;97872.47;337482;28;4607;-78
2024/01/04 00:54:02;;;;;;;1.10;0.30;;;;;;;10.10;89.17;97865.69;337446;28;4551;-77
2024/01/04 00:54:14;;;;;;;1.48;0.30;;;;;;;10.11;89.17;97869.13;335408;28;18965;-78
2024/01/04 00:54:26;;;;;;;1.50;0.30;;;;;;;10.11;89.30;97889.91;336785;28;4642;-78
2024/01/04 00:54:39;;;;;;;0.50;0.20;;;;;;;10.10;89.48;97929.75;334617;28;18238;-78
2024/01/04 00:54:50;;;;;;;0.30;0.20;;;;;;;10.10;89.28;97841.47;337195;28;4612;-78
2024/01/04 00:55:03;;;;;;;0.40;0.20;;;;;;;10.13;89.02;97856.88;336875;28;9996;-77
2024/01/04 00:55:15;;;;;;;0.43;0.20;;;;;;;10.14;89.20;97874.97;333863;28;17323;-78
2024/01/04 00:55:27;;;;;;;0.90;0.30;;;;;;;10.16;89.20;97867.06;335752;28;5379;-77
2024/01/04 00:55:39;;;;;;;1.00;0.25;;;;;;;10.07;88.87;97898.78;335058;28;17864;-78
2024/01/04 00:55:52;;;;;;;0.57;0.22;;;;;;;10.06;89.60;97873.75;336371;28;16846;-78
2024/01/04 00:56:05;;;;;;;0.50;0.20;;;;;;;10.06;89.62;97855.56;335671;28;18152;-77
2024/01/04 00:56:17;;;;;;;2.10;0.40;;;;;;;10.07;89.68;97880.63;338737;28;4812;-78
2024/01/04 00:56:33;;;;;;;2.30;0.40;;;;;;;10.09;89.62;97856.22;333368;28;11611;-77
2024/01/04 00:56:45;;;;;;;3.00;0.30;;;;;;;10.09;89.87;97868.38;334487;28;18783;-78
2024/01/04 00:56:58;;;;;;;2.65;0.20;;;;;;;10.02;89.53;97835.91;338712;28;4940;-77
2024/01/04 00:57:10;;;;;;;1.05;0.13;;;;;;;10.08;89.55;97817.38;335755;28;11691;-78
2024/01/04 00:57:22;;;;;;;0.10;0.00;;;;;;;10.11;89.33;97844.00;337286;28;4730;-78
2024/01/04 00:57:34;;;;;;;0.10;0.10;;;;;;;10.13;89.23;97854.28;334381;28;13523;-77
2024/01/04 00:57:46;;;;;;;0.30;0.10;;;;;;;10.04;89.29;97867.81;337130;28;4521;-77
2024/01/04 00:57:58;;;;;;;0.60;0.30;;;;;;;9.98;89.47;97885.44;337600;28;4556;-77
2024/01/04 00:58:10;;;;;;;0.70;0.32;;;;;;;9.93;89.47;97871.03;335741;28;18460;-78
2024/01/04 00:58:22;;;;;;;0.40;0.20;;;;;;;10.03;89.40;97873.94;337343;28;5089;-77
2024/01/04 00:58:34;;;;;;;0.20;0.13;;;;;;;10.02;88.80;97883.50;337428;28;5816;-77
2024/01/04 00:58:46;;;;;;;0.63;0.28;;;;;;;10.00;89.05;97898.31;334590;28;16509;-77
2024/01/04 00:58:58;;;;;;;1.33;0.40;;;;;;;9.95;89.04;97875.22;338468;28;4711;-77
2024/01/04 00:59:10;;;;;;;1.35;0.40;;;;;;;10.01;88.87;97868.81;334729;28;18031;-77
2024/01/04 00:59:22;;;;;;;0.77;0.32;;;;;;;10.05;88.99;97848.72;338284;28;4573;-77